Time;durP1;ratioP1;P1;durP2;ratioP2;P2;SDS_P1;SDS_P2;PMS_P1;PMS_P2;Temp;Humidity;BMP_temperature;BMP_pressure;BME280_temperature;BME280_humidity;BME280_pressure;Samples;Min_cycle;Max_cycle;Signal;HPM_P1;HPM_P2
2022/11/07 00:00:47;;;;;;;9.88;2.67;;;;;;;10.86;100.00;100816.63;5164122;28;20054;-73
2022/11/07 00:03:18;;;;;;;7.93;2.50;;;;;;;10.85;100.00;100812.28;5163879;28;20026;-74
2022/11/07 00:05:48;;;;;;;8.80;2.45;;;;;;;10.78;100.00;100812.09;5164087;28;20034;-74
2022/11/07 00:08:18;;;;;;;10.00;2.75;;;;;;;10.74;100.00;100804.53;5163321;28;20056;-73
2022/11/07 00:10:53;;;;;;;9.40;2.97;;;;;;;10.69;100.00;100814.94;5163604;28;20109;-73
2022/11/07 00:13:25;;;;;;;8.30;2.70;;;;;;;10.71;100.00;100815.63;5163832;28;20029;-75
2022/11/07 00:16:07;;;;;;;8.95;2.67;;;;;;;10.66;100.00;100810.75;5163561;28;20315;-74
2022/11/07 00:18:38;;;;;;;14.20;3.60;;;;;;;10.64;100.00;100815.44;5163462;28;20116;-73
2022/11/07 00:21:09;;;;;;;11.75;3.58;;;;;;;10.67;100.00;100819.63;5163488;28;20156;-73
2022/11/07 00:23:40;;;;;;;13.60;3.22;;;;;;;10.60;100.00;100819.47;5163387;28;20444;-74
2022/11/07 00:26:13;;;;;;;11.50;3.88;;;;;;;10.57;100.00;100817.94;5168753;28;20434;-73
2022/11/07 00:28:44;;;;;;;9.80;3.30;;;;;;;10.55;100.00;100817.28;5162667;28;20026;-74
2022/11/07 00:31:15;;;;;;;9.32;2.85;;;;;;;10.51;100.00;100821.31;5160651;28;20045;-73
2022/11/07 00:33:46;;;;;;;7.05;3.10;;;;;;;10.51;100.00;100824.00;5160353;28;20030;-74
2022/11/07 00:36:22;;;;;;;11.63;3.20;;;;;;;10.50;100.00;100816.97;5163358;28;20026;-75
2022/11/07 00:38:53;;;;;;;12.35;3.28;;;;;;;10.49;100.00;100831.38;5162240;28;20394;-73
2022/11/07 00:41:24;;;;;;;10.32;3.08;;;;;;;10.49;100.00;100820.66;5162797;28;20085;-73
2022/11/07 00:43:54;;;;;;;10.82;3.00;;;;;;;10.50;100.00;100829.53;5163394;28;20026;-72
2022/11/07 00:46:25;;;;;;;11.10;3.05;;;;;;;10.53;100.00;100834.53;5162843;28;20085;-74
2022/11/07 00:48:55;;;;;;;10.43;2.92;;;;;;;10.61;100.00;100832.72;5162851;28;20033;-73
2022/11/07 00:51:27;;;;;;;10.55;4.07;;;;;;;10.63;100.00;100832.53;5163073;28;20122;-74
2022/11/07 00:53:57;;;;;;;18.63;3.53;;;;;;;10.67;100.00;100836.56;5162879;28;20482;-73
2022/11/07 00:56:28;;;;;;;7.30;3.58;;;;;;;10.67;100.00;100841.94;5163024;28;20037;-73
2022/11/07 00:58:59;;;;;;;21.38;3.10;;;;;;;10.65;100.00;100843.97;5177859;28;20030;-74
2022/11/07 01:01:32;;;;;;;10.20;3.05;;;;;;;10.61;100.00;100839.94;5163136;28;20052;-73
2022/11/07 01:06:52;;;;;;;11.43;3.17;;;;;;;10.63;100.00;100848.63;5151398;28;20070;-72
2022/11/07 01:09:22;;;;;;;14.68;2.95;;;;;;;10.59;100.00;100863.38;5163237;28;20050;-73
2022/11/07 01:11:53;;;;;;;15.65;3.88;;;;;;;10.61;100.00;100856.88;5162944;28;20030;-73
2022/11/07 01:14:24;;;;;;;12.48;3.08;;;;;;;10.63;100.00;100852.16;5162960;28;20101;-73
2022/11/07 01:16:54;;;;;;;18.05;4.43;;;;;;;10.63;100.00;100848.63;5162033;28;20101;-73
2022/11/07 01:19:25;;;;;;;11.02;4.07;;;;;;;10.63;100.00;100857.53;5162816;28;20452;-73
2022/11/07 01:21:56;;;;;;;16.45;4.43;;;;;;;10.62;100.00;100852.34;5163026;28;20083;-74
2022/11/07 01:24:26;;;;;;;13.82;2.85;;;;;;;10.67;100.00;100854.53;5162741;28;20041;-74
2022/11/07 01:26:57;;;;;;;19.15;3.65;;;;;;;10.63;100.00;100867.41;5152979;28;20509;-73
2022/11/07 01:29:27;;;;;;;10.65;2.60;;;;;;;10.65;100.00;100861.91;5162562;28;20048;-73
2022/11/07 01:31:57;;;;;;;20.58;3.20;;;;;;;10.67;100.00;100860.72;5156893;28;20041;-73
2022/11/07 01:34:33;;;;;;;13.73;3.70;;;;;;;10.71;100.00;100855.88;5162878;28;20547;-73
2022/11/07 01:37:03;;;;;;;16.50;2.88;;;;;;;10.71;100.00;100856.72;5162276;28;20489;-73
2022/11/07 01:39:34;;;;;;;14.35;3.65;;;;;;;10.78;100.00;100860.38;5163143;28;20037;-74
2022/11/07 01:42:04;;;;;;;12.50;3.17;;;;;;;10.81;100.00;100851.19;5162561;28;20081;-74
2022/11/07 01:44:41;;;;;;;19.40;3.55;;;;;;;10.86;100.00;100851.50;5162764;28;20429;-74
2022/11/07 01:47:11;;;;;;;11.07;2.85;;;;;;;10.93;100.00;100855.19;5149275;28;20042;-74
2022/11/07 01:49:42;;;;;;;16.48;3.55;;;;;;;10.95;100.00;100844.31;5164769;28;20108;-73
2022/11/07 01:52:33;;;;;;;18.75;3.72;;;;;;;10.99;100.00;100853.66;5166035;28;20381;-74
2022/11/07 01:55:09;;;;;;;14.50;3.30;;;;;;;11.01;100.00;100847.16;5166255;28;20105;-73
2022/11/07 01:57:52;;;;;;;12.55;2.38;;;;;;;11.01;100.00;100854.34;5165980;28;20030;-74
2022/11/07 02:00:23;;;;;;;18.30;3.33;;;;;;;11.04;100.00;100849.47;5166203;28;20034;-75
2022/11/07 02:03:02;;;;;;;11.73;2.83;;;;;;;11.08;100.00;100841.94;5166339;28;20388;-75
2022/11/07 02:05:55;;;;;;;14.75;2.90;;;;;;;11.19;100.00;100838.88;5166501;28;20015;-74
2022/11/07 02:08:26;;;;;;;13.27;2.40;;;;;;;11.24;100.00;100833.00;5165982;28;20033;-74
2022/11/07 02:10:59;;;;;;;15.88;3.58;;;;;;;11.26;100.00;100839.06;5165860;28;20022;-74
2022/11/07 02:13:30;;;;;;;16.38;2.85;;;;;;;11.23;100.00;100842.91;5166511;28;20092;-74
2022/11/07 02:16:03;;;;;;;14.18;3.33;;;;;;;11.27;100.00;100832.66;5166298;28;20084;-74
2022/11/07 02:18:35;;;;;;;21.30;3.05;;;;;;;11.27;100.00;100840.72;5165514;28;20490;-74
2022/11/07 02:21:22;;;;;;;27.42;3.10;;;;;;;11.29;100.00;100842.22;5166196;28;20026;-74
2022/11/07 02:24:21;;;;;;;12.80;3.42;;;;;;;11.33;100.00;100845.41;5165985;28;20136;-74
2022/11/07 02:26:54;;;;;;;12.20;2.67;;;;;;;11.38;100.00;100848.41;5156314;28;20109;-74
2022/11/07 02:29:26;;;;;;;13.25;3.03;;;;;;;11.38;100.00;100851.94;5165915;28;20018;-75
2022/11/07 02:32:09;;;;;;;22.35;3.38;;;;;;;11.40;100.00;100867.91;5159737;28;20760;-74
2022/11/07 02:34:39;;;;;;;18.08;2.53;;;;;;;11.40;100.00;100849.94;5181020;28;20030;-74
2022/11/07 02:37:23;;;;;;;14.50;3.33;;;;;;;11.38;100.00;100851.94;5165227;28;20036;-74
2022/11/07 02:39:54;;;;;;;10.88;2.63;;;;;;;11.38;100.00;100851.09;5165814;28;20045;-74
2022/11/07 02:42:42;;;;;;;15.65;2.53;;;;;;;11.35;100.00;100851.47;5165475;28;20525;-75
2022/11/07 02:45:20;;;;;;;14.82;2.90;;;;;;;11.31;100.00;100848.28;5165655;28;20023;-74
2022/11/07 02:47:51;;;;;;;21.48;3.40;;;;;;;11.31;100.00;100856.34;5164920;28;20034;-74
2022/11/07 02:50:21;;;;;;;11.55;2.40;;;;;;;11.32;100.00;100846.44;5165538;28;20050;-74
2022/11/07 02:52:53;;;;;;;11.50;2.55;;;;;;;11.30;100.00;100845.78;5165449;28;20034;-75
2022/11/07 02:55:24;;;;;;;19.80;3.17;;;;;;;11.28;100.00;100837.88;5165531;28;20026;-75
2022/11/07 02:57:55;;;;;;;15.77;3.33;;;;;;;11.30;100.00;100846.59;5165160;28;20475;-75
2022/11/07 03:00:26;;;;;;;15.18;3.50;;;;;;;11.31;100.00;100837.53;5165268;28;20038;-74
2022/11/07 03:02:57;;;;;;;15.65;2.90;;;;;;;11.31;100.00;100836.69;5165047;28;20022;-75
2022/11/07 03:05:27;;;;;;;12.48;3.38;;;;;;;11.34;100.00;100849.75;5165022;28;20081;-75
2022/11/07 03:07:58;;;;;;;18.88;2.92;;;;;;;11.32;100.00;100851.78;5164520;28;20054;-74
2022/11/07 03:10:29;;;;;;;22.48;3.22;;;;;;;11.35;100.00;100855.00;5165201;28;20254;-73
2022/11/07 03:13:00;;;;;;;16.67;2.72;;;;;;;11.31;100.00;100853.66;5165026;28;20109;-74
2022/11/07 03:15:31;;;;;;;19.88;2.90;;;;;;;11.26;100.00;100850.63;5165072;28;20425;-74
2022/11/07 03:18:02;;;;;;;17.13;2.80;;;;;;;11.19;100.00;100854.16;5164813;28;20138;-73
2022/11/07 03:20:33;;;;;;;22.50;3.95;;;;;;;11.13;100.00;100856.50;5165099;28;20024;-73
2022/11/07 03:23:03;;;;;;;17.80;3.95;;;;;;;11.11;100.00;100858.53;5165434;28;20022;-73
2022/11/07 03:25:34;;;;;;;22.75;3.05;;;;;;;11.07;100.00;100859.88;5162095;28;20441;-74
2022/11/07 03:28:04;;;;;;;20.88;3.03;;;;;;;11.06;100.00;100852.84;5156417;28;20065;-73
2022/11/07 03:30:35;;;;;;;21.38;4.00;;;;;;;11.04;100.00;100868.25;5164383;28;20477;-73
2022/11/07 03:33:05;;;;;;;22.13;3.72;;;;;;;11.02;100.00;100862.25;5159428;28;20032;-73
2022/11/07 03:35:36;;;;;;;17.35;2.45;;;;;;;11.00;100.00;100866.94;5164497;28;20018;-73
2022/11/07 03:38:07;;;;;;;25.30;3.22;;;;;;;10.94;100.00;100866.75;5164877;28;20050;-74
2022/11/07 03:40:37;;;;;;;18.00;3.67;;;;;;;10.89;100.00;100865.44;5164329;28;20062;-73
2022/11/07 03:43:08;;;;;;;19.17;3.30;;;;;;;10.83;100.00;100860.72;5164566;28;20117;-72
2022/11/07 03:45:38;;;;;;;11.77;2.97;;;;;;;10.85;100.00;100864.09;5164571;28;20053;-71
2022/11/07 03:48:09;;;;;;;14.65;2.63;;;;;;;10.87;100.00;100861.22;5163675;28;20026;-71
2022/11/07 03:50:39;;;;;;;23.48;3.08;;;;;;;10.88;100.00;100863.75;5164714;28;20474;-73
2022/11/07 03:53:09;;;;;;;18.85;3.35;;;;;;;10.85;100.00;100864.09;5163907;28;20060;-72
2022/11/07 03:55:45;;;;;;;20.02;2.95;;;;;;;10.87;100.00;100856.69;5164645;28;20378;-72
2022/11/07 03:58:16;;;;;;;20.15;3.13;;;;;;;10.92;100.00;100860.72;5163517;28;20077;-72
2022/11/07 04:00:46;;;;;;;23.17;3.60;;;;;;;10.91;100.00;100861.75;5164528;28;20030;-72
2022/11/07 04:03:17;;;;;;;17.08;2.33;;;;;;;10.93;100.00;100857.88;5163997;28;20026;-72
2022/11/07 04:05:47;;;;;;;14.05;2.70;;;;;;;10.97;100.00;100861.91;5163618;28;20022;-72
2022/11/07 04:08:18;;;;;;;18.83;2.58;;;;;;;11.00;100.00;100856.22;5163769;28;20026;-72
2022/11/07 04:10:48;;;;;;;21.20;2.65;;;;;;;11.00;100.00;100866.09;5163965;28;20034;-72
2022/11/07 04:17:17;;;;;;;16.45;2.97;;;;;;;10.97;100.00;100871.81;5163514;28;20034;-72
2022/11/07 04:19:01;;;;;;;22.23;3.17;;;;;;;10.97;100.00;100871.81;5163110;28;20027;-72
2022/11/07 04:21:31;;;;;;;12.95;2.63;;;;;;;10.97;100.00;100861.91;5164191;28;20492;-71
2022/11/07 04:24:02;;;;;;;10.73;2.60;;;;;;;10.97;100.00;100878.00;5163581;28;20034;-72
2022/11/07 04:29:21;;;;;;;18.80;2.83;;;;;;;11.00;100.00;100885.75;5151383;28;20014;-73
2022/11/07 04:31:51;;;;;;;18.17;2.97;;;;;;;11.04;100.00;100887.06;5157825;28;20031;-72
2022/11/07 04:34:22;;;;;;;16.65;2.85;;;;;;;11.08;100.00;100888.41;5163633;28;20033;-73
2022/11/07 04:36:52;;;;;;;16.10;2.92;;;;;;;11.11;100.00;100885.38;5162597;28;20022;-73
2022/11/07 04:39:23;;;;;;;17.85;2.83;;;;;;;11.13;100.00;100879.84;5163513;28;20113;-72
2022/11/07 04:41:55;;;;;;;26.17;2.70;;;;;;;11.14;100.00;100884.19;5163500;28;20383;-73
2022/11/07 04:44:25;;;;;;;11.27;2.63;;;;;;;11.19;100.00;100883.69;5163839;28;20317;-73
2022/11/07 04:46:56;;;;;;;20.75;2.95;;;;;;;11.23;100.00;100888.56;5164983;28;20030;-73
2022/11/07 04:49:26;;;;;;;23.20;3.42;;;;;;;11.29;100.00;100876.28;5163036;28;20037;-72
2022/11/07 04:51:57;;;;;;;20.70;2.97;;;;;;;11.38;100.00;100880.66;5163365;28;20474;-72
2022/11/07 04:54:27;;;;;;;12.15;2.45;;;;;;;11.38;100.00;100880.66;5163398;28;20553;-73
2022/11/07 04:56:58;;;;;;;13.55;3.00;;;;;;;11.43;100.00;100886.34;5161752;28;20415;-73
2022/11/07 04:59:28;;;;;;;15.52;3.78;;;;;;;11.46;100.00;100882.50;5163175;28;20393;-73
2022/11/07 05:02:00;;;;;;;13.35;3.08;;;;;;;11.50;100.00;100887.38;5162921;28;20027;-73
2022/11/07 05:04:30;;;;;;;16.00;3.15;;;;;;;11.58;100.00;100876.56;5163294;28;20153;-73
2022/11/07 05:07:01;;;;;;;21.63;3.70;;;;;;;11.64;100.00;100883.94;5162856;28;20114;-73
2022/11/07 05:09:33;;;;;;;15.27;3.30;;;;;;;11.64;100.00;100885.78;5163206;28;20051;-73
2022/11/07 05:12:04;;;;;;;24.83;3.15;;;;;;;11.62;100.00;100890.50;5163078;28;20034;-70
2022/11/07 05:14:35;;;;;;;19.45;2.70;;;;;;;11.64;100.00;100881.25;5163163;28;20489;-72
2022/11/07 05:17:05;;;;;;;14.93;2.60;;;;;;;11.61;100.00;100886.16;5161532;28;20037;-72
2022/11/07 05:19:35;;;;;;;20.63;3.58;;;;;;;11.56;100.00;100889.34;5163041;28;20113;-72
2022/11/07 05:24:55;;;;;;;14.65;2.33;;;;;;;11.53;100.00;100889.69;5161959;28;20053;-72
2022/11/07 05:27:25;;;;;;;26.00;3.40;;;;;;;11.49;100.00;100882.97;5165041;28;20030;-72
2022/11/07 05:29:56;;;;;;;13.95;2.75;;;;;;;11.49;100.00;100880.28;5167186;28;20402;-72
2022/11/07 05:32:26;;;;;;;17.25;3.40;;;;;;;11.47;100.00;100886.84;5160572;28;20033;-72
2022/11/07 05:34:57;;;;;;;14.65;3.17;;;;;;;11.48;100.00;100892.06;5167006;28;20548;-72
2022/11/07 05:37:27;;;;;;;20.15;3.67;;;;;;;11.46;100.00;100887.88;5166138;28;20033;-72
2022/11/07 05:39:58;;;;;;;18.20;3.60;;;;;;;11.44;100.00;100890.72;5166750;28;20105;-72
2022/11/07 05:42:28;;;;;;;19.98;3.58;;;;;;;11.41;100.00;100891.91;5166912;28;20054;-72
2022/11/07 05:44:59;;;;;;;25.75;3.88;;;;;;;11.44;100.00;100896.06;5166674;28;20026;-72
2022/11/07 05:47:29;;;;;;;22.92;3.78;;;;;;;11.44;100.00;100888.03;5165865;28;20038;-72
2022/11/07 05:49:59;;;;;;;15.50;3.25;;;;;;;11.44;100.00;100893.38;5166326;28;20157;-72
2022/11/07 05:52:31;;;;;;;13.10;2.58;;;;;;;11.43;100.00;100902.47;5166731;28;20034;-72
2022/11/07 05:55:01;;;;;;;19.60;3.00;;;;;;;11.44;100.00;100900.63;5166507;28;20583;-72
2022/11/07 05:57:32;;;;;;;19.40;3.35;;;;;;;11.46;100.00;100899.44;5166545;28;20034;-72
2022/11/07 06:00:03;;;;;;;18.90;2.80;;;;;;;11.48;100.00;100897.41;5166171;28;20030;-70
2022/11/07 06:02:33;;;;;;;23.98;4.60;;;;;;;11.48;100.00;100902.78;5166389;28;20022;-73
2022/11/07 06:05:04;;;;;;;16.17;3.55;;;;;;;11.46;100.00;100906.69;5166604;28;20057;-71
2022/11/07 06:07:36;;;;;;;11.52;2.50;;;;;;;11.43;100.00;100898.94;5165655;28;20037;-71
2022/11/07 06:10:07;;;;;;;24.10;3.35;;;;;;;11.42;100.00;100916.91;5166615;28;20022;-71
2022/11/07 06:12:38;;;;;;;19.55;2.88;;;;;;;11.41;100.00;100909.88;5165606;28;20066;-72
2022/11/07 06:15:09;;;;;;;27.08;3.20;;;;;;;11.44;100.00;100914.06;5166268;28;20128;-72
2022/11/07 06:17:39;;;;;;;17.52;3.53;;;;;;;11.47;100.00;100916.41;5165728;28;20038;-72
2022/11/07 06:20:10;;;;;;;13.07;3.08;;;;;;;11.53;100.00;100919.25;5166889;28;20049;-72
2022/11/07 06:22:40;;;;;;;22.83;4.03;;;;;;;11.49;100.00;100917.91;5166202;28;20055;-71
2022/11/07 06:25:11;;;;;;;24.60;3.67;;;;;;;11.51;100.00;100915.91;5168583;28;20374;-72
2022/11/07 06:27:41;;;;;;;19.17;3.38;;;;;;;11.51;100.00;100923.97;5165503;28;20484;-71
2022/11/07 06:30:12;;;;;;;20.50;3.50;;;;;;;11.54;100.00;100934.34;5165947;28;20030;-71
2022/11/07 06:32:45;;;;;;;20.08;3.30;;;;;;;11.51;100.00;100934.69;5160021;28;20114;-70
2022/11/07 06:35:16;;;;;;;18.02;3.15;;;;;;;11.52;100.00;100933.69;5164751;28;20073;-70
2022/11/07 06:37:46;;;;;;;19.98;4.22;;;;;;;11.53;100.00;100940.72;5165205;28;20038;-70
2022/11/07 06:40:16;;;;;;;21.08;3.67;;;;;;;11.55;100.00;100943.28;5165639;28;20054;-70
2022/11/07 06:42:47;;;;;;;14.52;2.55;;;;;;;11.55;100.00;100943.28;5165565;28;20022;-70
2022/11/07 06:45:17;;;;;;;24.08;4.20;;;;;;;11.56;100.00;100953.00;5165459;28;20026;-70
2022/11/07 06:47:48;;;;;;;18.42;3.63;;;;;;;11.54;100.00;100955.84;5165259;28;20026;-70
2022/11/07 06:50:18;;;;;;;15.02;3.55;;;;;;;11.53;100.00;100961.38;5164905;28;20044;-70
2022/11/07 06:52:49;;;;;;;27.55;3.25;;;;;;;11.53;100.00;100954.16;5165358;28;20027;-70
2022/11/07 06:55:20;;;;;;;26.63;3.83;;;;;;;11.50;100.00;100959.91;5165386;28;20026;-70
2022/11/07 06:57:51;;;;;;;27.60;3.50;;;;;;;11.54;100.00;100955.84;5163633;28;20030;-70
2022/11/07 07:00:21;;;;;;;14.60;3.33;;;;;;;11.54;100.00;100961.22;5165144;28;20466;-70
2022/11/07 07:02:52;;;;;;;14.60;2.95;;;;;;;11.55;100.00;100962.91;5164964;28;20501;-70
2022/11/07 07:05:23;;;;;;;20.35;3.35;;;;;;;11.57;100.00;100963.56;5165223;28;20030;-70
2022/11/07 07:07:54;;;;;;;31.33;3.55;;;;;;;11.58;100.00;100964.41;5164529;28;20034;-70
2022/11/07 07:10:25;;;;;;;18.55;2.97;;;;;;;11.59;100.00;100966.91;5165220;28;20045;-71
2022/11/07 07:12:56;;;;;;;22.73;2.92;;;;;;;11.58;100.00;100970.63;5164855;28;20026;-71
2022/11/07 07:15:26;;;;;;;14.00;3.13;;;;;;;11.60;100.00;100984.75;5163821;28;20030;-71
2022/11/07 07:18:00;;;;;;;16.23;2.83;;;;;;;11.61;100.00;100978.34;5164357;28;20072;-71
2022/11/07 07:20:31;;;;;;;14.82;2.90;;;;;;;11.61;100.00;100981.03;5165179;28;20058;-71
2022/11/07 07:23:01;;;;;;;20.77;2.97;;;;;;;11.61;100.00;100978.34;5164898;28;20029;-71
2022/11/07 07:25:32;;;;;;;15.75;3.15;;;;;;;11.59;100.00;100976.81;5165884;28;20113;-71
2022/11/07 07:28:02;;;;;;;21.45;3.88;;;;;;;11.59;100.00;100984.88;5154369;28;20469;-71
2022/11/07 07:30:33;;;;;;;11.13;3.13;;;;;;;11.59;100.00;100984.88;5164407;28;20086;-72
2022/11/07 07:33:04;;;;;;;23.67;3.67;;;;;;;11.62;100.00;100981.88;5159127;28;20030;-71
2022/11/07 07:35:34;;;;;;;17.60;2.97;;;;;;;11.61;100.00;100983.72;5164586;28;20101;-71
2022/11/07 07:38:04;;;;;;;15.00;3.60;;;;;;;11.64;100.00;100982.53;5163654;28;20125;-71
2022/11/07 07:40:35;;;;;;;18.60;3.20;;;;;;;11.70;100.00;100989.06;5164418;28;20149;-71
2022/11/07 07:43:05;;;;;;;16.65;4.13;;;;;;;11.73;100.00;100988.75;5164442;28;20026;-71
2022/11/07 07:45:36;;;;;;;16.60;3.15;;;;;;;11.77;100.00;100990.91;5164362;28;20018;-71
2022/11/07 07:48:06;;;;;;;14.13;2.75;;;;;;;11.80;100.00;100990.59;5163377;28;20062;-71
2022/11/07 07:50:37;;;;;;;20.50;3.80;;;;;;;11.84;100.00;100996.47;5163768;28;20034;-72
2022/11/07 07:53:07;;;;;;;18.65;2.88;;;;;;;11.86;100.00;100997.16;5164071;28;20026;-71
2022/11/07 07:55:38;;;;;;;15.35;3.97;;;;;;;11.85;100.00;100992.81;5163901;28;20030;-71
2022/11/07 07:58:09;;;;;;;17.77;3.13;;;;;;;11.92;100.00;100994.63;5163580;28;20117;-71
2022/11/07 08:00:40;;;;;;;20.98;4.28;;;;;;;11.92;100.00;100996.47;5163896;28;20034;-71
2022/11/07 08:03:12;;;;;;;17.42;3.63;;;;;;;11.97;100.00;100995.97;5162393;28;20026;-71
2022/11/07 08:05:42;;;;;;;15.90;3.08;;;;;;;11.97;100.00;100999.47;5163933;28;20027;-71
2022/11/07 08:08:13;;;;;;;17.05;4.30;;;;;;;11.98;100.00;101006.53;5163174;28;20028;-71
2022/11/07 08:10:43;;;;;;;21.23;2.95;;;;;;;12.00;100.00;101007.22;5163697;28;20449;-72
2022/11/07 08:13:14;;;;;;;28.15;4.05;;;;;;;12.03;100.00;101006.84;5163744;28;20022;-72
2022/11/07 08:15:44;;;;;;;19.13;4.07;;;;;;;12.05;100.00;101020.13;5163875;28;20386;-71
2022/11/07 08:18:15;;;;;;;21.98;4.13;;;;;;;12.06;100.00;101008.38;5163512;28;20041;-71
2022/11/07 08:20:47;;;;;;;17.92;3.85;;;;;;;12.10;100.00;101013.25;5163543;28;20032;-72
2022/11/07 08:23:18;;;;;;;23.38;3.60;;;;;;;12.10;100.00;101015.94;5163632;28;20022;-72
2022/11/07 08:25:54;;;;;;;13.68;3.45;;;;;;;12.16;100.00;101019.78;5166131;28;20044;-72
2022/11/07 08:28:27;;;;;;;13.65;3.65;;;;;;;12.19;100.00;101025.63;5156221;28;20062;-72
2022/11/07 08:31:03;;;;;;;20.48;3.40;;;;;;;12.25;100.00;101018.75;5163055;28;20025;-71
2022/11/07 08:33:34;;;;;;;21.67;4.55;;;;;;;12.31;100.00;101015.38;5158717;28;20033;-72
2022/11/07 08:36:06;;;;;;;17.08;4.00;;;;;;;12.35;100.00;101007.75;5163871;28;20026;-72
2022/11/07 08:38:36;;;;;;;15.75;3.63;;;;;;;12.40;100.00;101016.19;5162423;28;20113;-72
2022/11/07 08:41:07;;;;;;;16.73;3.85;;;;;;;12.48;100.00;101016.13;5155520;28;20105;-71
2022/11/07 08:43:37;;;;;;;18.52;4.03;;;;;;;12.56;100.00;101010.72;5161921;28;20034;-72
2022/11/07 08:46:08;;;;;;;24.52;7.18;;;;;;;12.66;100.00;101015.91;5161095;28;20367;-71
2022/11/07 08:48:39;;;;;;;24.67;3.67;;;;;;;12.70;100.00;101022.56;5161491;28;20030;-72
2022/11/07 08:51:10;;;;;;;19.00;4.13;;;;;;;12.73;100.00;101019.53;5161209;28;20109;-72
2022/11/07 08:53:40;;;;;;;9.52;2.65;;;;;;;12.72;100.00;101025.94;5161323;28;20168;-71
2022/11/07 08:56:11;;;;;;;21.05;3.25;;;;;;;12.70;100.00;101023.44;5163232;28;20033;-71
2022/11/07 08:58:41;;;;;;;25.30;3.20;;;;;;;12.74;100.00;101023.06;5164831;28;20033;-72
2022/11/07 09:01:12;;;;;;;22.98;4.15;;;;;;;12.76;100.00;101026.44;5168551;28;20426;-72
2022/11/07 09:03:42;;;;;;;13.98;2.88;;;;;;;12.84;100.00;101034.47;5169782;28;20124;-72
2022/11/07 09:06:13;;;;;;;30.35;4.82;;;;;;;12.81;100.00;101029.44;5169824;28;20512;-72
2022/11/07 09:08:44;;;;;;;17.52;3.45;;;;;;;12.82;100.00;101034.66;5169488;28;20081;-72
2022/11/07 09:11:17;;;;;;;11.40;3.15;;;;;;;12.89;100.00;101018.63;5169874;28;20030;-71
2022/11/07 09:13:48;;;;;;;20.40;3.53;;;;;;;12.99;100.00;101021.09;5170045;28;20030;-72
2022/11/07 09:16:19;;;;;;;16.17;3.13;;;;;;;13.11;100.00;101027.75;5169942;28;20030;-72
2022/11/07 09:18:51;;;;;;;21.48;2.95;;;;;;;13.18;100.00;101032.25;5169408;28;20049;-72
2022/11/07 09:21:21;;;;;;;15.07;3.22;;;;;;;13.24;100.00;101027.19;5169789;28;20473;-72
2022/11/07 09:23:52;;;;;;;24.90;2.67;;;;;;;13.18;100.00;101034.09;5169748;28;20061;-72
2022/11/07 09:26:22;;;;;;;17.65;3.15;;;;;;;13.22;100.00;101030.06;5164299;28;20027;-72
2022/11/07 09:28:53;;;;;;;11.70;2.80;;;;;;;13.25;100.00;101026.16;5166098;28;20030;-72
2022/11/07 09:31:24;;;;;;;22.70;3.88;;;;;;;13.30;100.00;101021.91;5164599;28;20105;-72
2022/11/07 09:33:54;;;;;;;19.27;3.00;;;;;;;13.38;100.00;101029.09;5167854;28;20117;-72
2022/11/07 09:36:25;;;;;;;15.75;3.17;;;;;;;13.43;100.00;101018.63;5169611;28;20076;-72
2022/11/07 09:38:58;;;;;;;15.10;2.92;;;;;;;13.48;100.00;101030.53;5167820;28;20466;-72
2022/11/07 09:41:49;;;;;;;12.18;2.88;;;;;;;13.56;100.00;101026.13;5184724;28;20030;-71
2022/11/07 09:44:47;;;;;;;21.35;3.00;;;;;;;13.53;100.00;101031.84;5169845;28;20030;-72
2022/11/07 09:47:41;;;;;;;14.80;2.40;;;;;;;13.76;100.00;101029.13;5157311;28;20031;-72
2022/11/07 09:50:24;;;;;;;15.23;2.80;;;;;;;13.91;100.00;101038.94;5169184;28;20053;-72
2022/11/07 09:53:27;;;;;;;17.35;3.80;;;;;;;13.94;100.00;101040.41;5169345;28;20023;-72
2022/11/07 09:56:00;;;;;;;15.80;2.88;;;;;;;14.04;100.00;101040.97;5167546;28;20096;-72
2022/11/07 09:58:35;;;;;;;25.85;3.28;;;;;;;14.18;100.00;101053.66;5169040;28;20160;-72
2022/11/07 10:01:14;;;;;;;17.67;3.40;;;;;;;14.17;100.00;101049.28;5169335;28;20133;-72
2022/11/07 10:03:45;;;;;;;15.43;3.17;;;;;;;14.48;100.00;101059.09;5169849;28;20022;-72
2022/11/07 10:06:26;;;;;;;18.23;3.03;;;;;;;14.74;100.00;101061.31;5169028;28;20037;-72
2022/11/07 10:09:10;;;;;;;17.27;3.20;;;;;;;14.69;100.00;101061.03;5168683;28;20033;-72
2022/11/07 10:11:52;;;;;;;17.92;3.47;;;;;;;14.51;100.00;101061.44;5166431;28;20122;-72
2022/11/07 10:14:30;;;;;;;15.80;3.10;;;;;;;14.40;100.00;101064.53;5165755;28;20062;-72
2022/11/07 10:17:34;;;;;;;18.95;3.28;;;;;;;14.15;100.00;101070.19;5165638;28;20030;-72
2022/11/07 10:20:41;;;;;;;12.95;2.55;;;;;;;14.15;100.00;101077.47;5166531;28;20486;-72
2022/11/07 10:23:26;;;;;;;;;;;;;;;14.12;100.00;101072.44;5156189;28;20494;-72
2022/11/07 10:26:03;;;;;;;8.95;2.40;;;;;;;14.23;100.00;101074.69;5168156;28;20301;-73
2022/11/07 10:28:52;;;;;;;24.50;4.03;;;;;;;14.39;100.00;101076.38;5165283;28;20058;-72
2022/11/07 10:31:27;;;;;;;23.40;4.63;;;;;;;14.55;100.00;101072.69;5162145;28;20042;-72
2022/11/07 10:34:19;;;;;;;17.20;3.67;;;;;;;14.55;100.00;101078.06;5165198;28;20112;-72
2022/11/07 10:36:50;;;;;;;15.25;2.65;;;;;;;14.55;100.00;101084.31;5165087;28;20339;-72
2022/11/07 10:39:20;;;;;;;21.30;3.63;;;;;;;14.45;100.00;101083.72;5164123;28;20030;-72
2022/11/07 10:42:01;;;;;;;19.25;3.28;;;;;;;14.49;100.00;101090.47;5165493;28;20101;-72
2022/11/07 10:44:34;;;;;;;14.93;3.13;;;;;;;14.44;100.00;101087.44;5165517;28;20042;-72
2022/11/07 10:47:15;;;;;;;19.85;3.10;;;;;;;14.40;100.00;101083.44;5165010;28;20030;-72
2022/11/07 10:49:59;;;;;;;12.77;2.58;;;;;;;14.41;100.00;101080.56;5165555;28;20351;-72
2022/11/07 10:52:30;;;;;;;12.32;2.28;;;;;;;14.33;100.00;101086.03;5165316;28;20026;-72
2022/11/07 10:55:13;;;;;;;13.52;2.42;;;;;;;14.34;100.00;101084.19;5165631;28;20496;-72
2022/11/07 10:57:48;;;;;;;11.75;2.45;;;;;;;14.35;100.00;101075.06;5164621;28;20034;-72
2022/11/07 11:00:21;;;;;;;;;;;;;;;14.39;100.00;101070.97;5166037;28;20482;-72
2022/11/07 11:02:53;;;;;;;15.63;2.75;;;;;;;14.44;100.00;101079.34;5164957;28;19956;-72
2022/11/07 11:05:29;;;;;;;19.83;3.17;;;;;;;14.34;100.00;101066.13;5165235;28;20026;-72
2022/11/07 11:08:19;;;;;;;14.00;2.75;;;;;;;14.40;100.00;101069.94;5163240;28;20481;-72
2022/11/07 11:10:50;;;;;;;16.48;3.53;;;;;;;14.38;100.00;101062.03;5164622;28;20404;-72
2022/11/07 11:13:33;;;;;;;15.35;2.92;;;;;;;14.47;100.00;101054.69;5165041;28;20049;-72
2022/11/07 11:16:12;;;;;;;13.50;3.08;;;;;;;14.45;100.00;101065.66;5164750;28;20118;-72
2022/11/07 11:18:55;;;;;;;19.20;3.40;;;;;;;14.46;100.00;101075.47;5164150;28;20030;-72
2022/11/07 11:21:36;;;;;;;12.48;3.03;;;;;;;14.48;100.00;101076.13;5164202;28;20053;-72
2022/11/07 11:24:36;;;;;;;17.20;2.83;;;;;;;14.50;100.00;101076.75;5164616;28;20025;-72
2022/11/07 11:27:18;;;;;;;12.30;2.67;;;;;;;14.61;100.00;101071.91;5148875;28;20043;-72
2022/11/07 11:30:01;;;;;;;18.48;3.42;;;;;;;14.63;100.00;101069.88;5164761;28;20077;-72
2022/11/07 11:32:39;;;;;;;12.75;3.13;;;;;;;14.69;100.00;101069.97;5154762;28;20108;-72
2022/11/07 11:35:41;;;;;;;17.13;3.78;;;;;;;14.83;100.00;101060.19;5165129;28;20021;-72
2022/11/07 11:38:28;;;;;;;12.88;2.83;;;;;;;14.92;100.00;101064.44;5153533;28;20033;-72
2022/11/07 11:41:06;;;;;;;15.18;2.83;;;;;;;14.97;100.00;101061.19;5164650;28;20018;-72
2022/11/07 11:43:53;;;;;;;11.32;2.63;;;;;;;14.86;100.00;101065.22;5164414;28;20137;-72
2022/11/07 11:46:32;;;;;;;9.15;2.75;;;;;;;14.81;100.00;101058.69;5164254;28;20080;-71
2022/11/07 11:49:18;;;;;;;16.27;3.38;;;;;;;14.86;100.00;101056.25;5162620;28;20030;-71